createdAt,value
2022-11-24T00:01:58.723Z,3.47
2022-11-24T00:04:25.437Z,2.67
2022-11-24T00:06:53.536Z,3.07
2022-11-24T00:09:20.257Z,2.60
2022-11-24T00:11:46.913Z,2.60
2022-11-24T00:14:13.557Z,2.50
2022-11-24T00:16:40.246Z,2.47
2022-11-24T00:19:09.369Z,2.77
2022-11-24T00:21:36.780Z,3.67
2022-11-24T00:24:03.588Z,3.00
2022-11-24T00:26:32.020Z,3.13
2022-11-24T00:29:00.026Z,2.43
2022-11-24T00:31:28.409Z,2.50
2022-11-24T00:33:56.413Z,4.07
2022-11-24T00:36:23.830Z,3.00
2022-11-24T00:38:54.422Z,2.87
2022-11-24T00:41:21.265Z,2.50
2022-11-24T00:43:47.891Z,2.63
2022-11-24T00:46:14.799Z,3.03
2022-11-24T00:48:41.606Z,2.90
2022-11-24T00:51:10.320Z,2.40
2022-11-24T00:53:37.023Z,3.00
2022-11-24T00:56:04.152Z,3.10
2022-11-24T00:58:31.706Z,3.00
2022-11-24T01:01:05.519Z,3.10
2022-11-24T01:03:32.538Z,3.10
2022-11-24T01:06:03.469Z,3.40
2022-11-24T01:08:30.557Z,2.60
2022-11-24T01:11:06.555Z,2.67
2022-11-24T01:13:33.188Z,3.00
2022-11-24T01:16:00.001Z,2.43
2022-11-24T01:18:26.709Z,4.77
2022-11-24T01:20:53.393Z,2.80
2022-11-24T01:23:19.993Z,2.93
2022-11-24T01:25:46.627Z,2.87
2022-11-24T01:28:13.834Z,3.27
2022-11-24T01:30:40.566Z,3.10
2022-11-24T01:33:07.390Z,2.67
2022-11-24T01:35:34.132Z,3.07
2022-11-24T01:38:00.829Z,2.93
2022-11-24T01:40:27.558Z,2.80
2022-11-24T01:42:54.321Z,3.67
2022-11-24T01:45:32.551Z,3.43
2022-11-24T01:47:59.988Z,3.40
2022-11-24T01:50:26.872Z,2.77
2022-11-24T01:52:55.498Z,3.43
2022-11-24T01:55:25.065Z,3.63
2022-11-24T01:57:54.001Z,3.07
2022-11-24T02:00:20.690Z,3.33
2022-11-24T02:02:47.466Z,3.20
2022-11-24T02:05:22.653Z,3.77
2022-11-24T02:07:50.693Z,3.67
2022-11-24T02:10:17.441Z,3.47
2022-11-24T02:12:46.141Z,3.47
2022-11-24T02:15:14.705Z,3.90
2022-11-24T02:17:41.415Z,3.83
2022-11-24T02:20:09.436Z,3.93
2022-11-24T02:22:45.197Z,3.80
2022-11-24T02:25:16.096Z,3.07
2022-11-24T02:27:47.015Z,3.27
2022-11-24T02:30:16.198Z,3.20
2022-11-24T02:32:43.449Z,3.47
2022-11-24T02:35:10.854Z,3.40
2022-11-24T02:37:37.444Z,3.77
2022-11-24T02:40:04.875Z,3.47
2022-11-24T02:42:34.073Z,3.73
2022-11-24T02:45:00.870Z,3.90
2022-11-24T02:47:27.969Z,3.03
2022-11-24T02:49:54.625Z,3.70
2022-11-24T02:52:21.278Z,3.70
2022-11-24T02:54:47.993Z,3.60
2022-11-24T02:57:15.268Z,3.43
2022-11-24T02:59:41.977Z,3.80
2022-11-24T03:02:10.467Z,4.30
2022-11-24T03:04:37.329Z,3.93
2022-11-24T03:07:03.991Z,3.63
2022-11-24T03:09:30.731Z,3.87
2022-11-24T03:11:57.408Z,3.70
2022-11-24T03:14:24.008Z,3.90
2022-11-24T03:16:50.551Z,3.43
2022-11-24T03:19:17.087Z,2.77
2022-11-24T03:21:43.825Z,3.70
2022-11-24T03:24:10.454Z,3.70
2022-11-24T03:26:37.162Z,4.40
2022-11-24T03:29:03.798Z,3.37
2022-11-24T03:31:30.464Z,3.50
2022-11-24T03:33:57.069Z,3.50
2022-11-24T03:36:23.645Z,3.30
2022-11-24T03:38:50.270Z,3.53
2022-11-24T03:41:16.890Z,3.27
2022-11-24T03:43:44.267Z,4.73
2022-11-24T03:46:11.654Z,3.53
2022-11-24T03:48:38.374Z,3.73
2022-11-24T03:51:05.013Z,4.30
2022-11-24T03:53:32.099Z,3.43
2022-11-24T03:55:58.726Z,3.60
2022-11-24T03:58:25.765Z,3.37
2022-11-24T04:00:53.062Z,4.07
2022-11-24T04:03:20.055Z,3.20
2022-11-24T04:05:46.832Z,3.97
2022-11-24T04:08:13.392Z,3.80
2022-11-24T04:10:40.089Z,3.40
2022-11-24T04:13:16.322Z,3.53
2022-11-24T04:15:43.595Z,4.57
2022-11-24T04:18:10.785Z,3.53
2022-11-24T04:20:37.721Z,3.20
2022-11-24T04:23:04.581Z,3.43
2022-11-24T04:25:31.178Z,4.00
2022-11-24T04:27:58.193Z,3.17
2022-11-24T04:30:25.563Z,3.50
2022-11-24T04:32:52.212Z,4.60
2022-11-24T04:35:19.509Z,4.03
2022-11-24T04:37:46.229Z,3.70
2022-11-24T04:40:12.931Z,3.73
2022-11-24T04:42:39.595Z,4.33
2022-11-24T04:45:06.637Z,3.70
2022-11-24T04:47:33.268Z,4.40
2022-11-24T04:50:00.361Z,3.27
2022-11-24T04:52:27.032Z,3.60
2022-11-24T04:54:53.711Z,3.93
2022-11-24T04:57:25.000Z,3.57
2022-11-24T04:59:52.687Z,4.03
2022-11-24T05:02:19.727Z,2.40
2022-11-24T05:04:46.767Z,2.70
2022-11-24T05:07:19.109Z,3.27
2022-11-24T05:10:04.649Z,3.57
2022-11-24T05:12:31.529Z,3.73
2022-11-24T05:14:58.917Z,3.50
2022-11-24T05:17:28.574Z,3.47
2022-11-24T05:19:55.155Z,3.53
2022-11-24T05:22:21.771Z,3.07
2022-11-24T05:24:48.513Z,2.40
2022-11-24T05:27:15.154Z,2.00
2022-11-24T05:29:41.765Z,2.67
2022-11-24T05:32:08.466Z,2.33
2022-11-24T05:34:35.362Z,2.33
2022-11-24T05:37:03.728Z,2.07
2022-11-24T05:39:34.059Z,2.23
2022-11-24T05:42:22.103Z,1.77
2022-11-24T05:44:50.015Z,1.57
2022-11-24T05:47:18.473Z,1.33
2022-11-24T05:49:46.768Z,1.30
2022-11-24T05:52:14.912Z,1.50
2022-11-24T05:54:43.279Z,1.90
2022-11-24T05:57:11.314Z,1.20
2022-11-24T05:59:39.889Z,1.13
2022-11-24T06:02:07.284Z,1.33
2022-11-24T06:04:34.415Z,1.30
2022-11-24T06:07:01.364Z,0.80
2022-11-24T06:09:28.101Z,1.30
2022-11-24T06:11:55.018Z,1.30
2022-11-24T06:14:21.629Z,1.50
2022-11-24T06:16:48.377Z,1.30
2022-11-24T06:19:14.973Z,1.40
2022-11-24T06:21:41.582Z,1.20
2022-11-24T06:24:08.281Z,1.17
2022-11-24T06:26:34.982Z,1.70
2022-11-24T06:29:01.588Z,2.87
2022-11-24T06:31:28.224Z,2.90
2022-11-24T06:33:55.373Z,2.90
2022-11-24T06:36:21.989Z,2.80
2022-11-24T06:38:48.649Z,3.60
2022-11-24T06:41:16.153Z,9.60
2022-11-24T06:43:42.763Z,5.23
2022-11-24T06:46:09.781Z,2.00
2022-11-24T06:48:36.458Z,2.20
2022-11-24T06:51:04.757Z,1.70
2022-11-24T06:53:38.906Z,1.80
2022-11-24T06:56:09.452Z,1.83
2022-11-24T06:58:44.989Z,1.57
2022-11-24T07:01:15.942Z,1.43
2022-11-24T07:03:42.655Z,2.00
2022-11-24T07:06:09.313Z,2.00
2022-11-24T07:08:35.904Z,1.70
2022-11-24T07:11:10.059Z,1.90
2022-11-24T07:13:37.131Z,2.13
2022-11-24T07:16:16.006Z,1.80
2022-11-24T07:18:46.861Z,2.20
2022-11-24T07:21:13.742Z,1.50
2022-11-24T07:23:40.654Z,2.70
2022-11-24T07:26:08.409Z,2.60
2022-11-24T07:28:35.358Z,2.40
2022-11-24T07:31:06.190Z,2.00
2022-11-24T07:33:32.946Z,2.43
2022-11-24T07:36:00.134Z,2.33
2022-11-24T07:38:26.682Z,2.17
2022-11-24T07:40:53.418Z,2.67
2022-11-24T07:43:20.513Z,2.97
2022-11-24T07:45:52.696Z,2.67
2022-11-24T07:48:19.400Z,3.03
2022-11-24T07:50:47.945Z,2.67
2022-11-24T07:53:17.857Z,2.90
2022-11-24T07:55:44.520Z,3.07
2022-11-24T07:58:11.105Z,2.23
2022-11-24T08:00:38.002Z,3.57
2022-11-24T08:03:04.607Z,3.30
2022-11-24T08:05:31.227Z,2.53
2022-11-24T08:07:59.797Z,2.67
2022-11-24T08:10:26.515Z,2.83
2022-11-24T08:12:53.280Z,2.03
2022-11-24T08:15:20.261Z,3.00
2022-11-24T08:17:47.000Z,3.10
2022-11-24T08:20:13.562Z,2.67
2022-11-24T08:22:40.184Z,2.77
2022-11-24T08:25:07.114Z,2.80
2022-11-24T08:27:33.730Z,2.97
2022-11-24T08:30:00.324Z,2.30
2022-11-24T08:32:27.168Z,2.30
2022-11-24T08:34:59.487Z,2.33
2022-11-24T08:37:29.984Z,2.20
2022-11-24T08:39:56.555Z,2.53
2022-11-24T08:42:23.195Z,2.03
2022-11-24T08:44:49.795Z,2.20
2022-11-24T08:47:16.935Z,2.17
2022-11-24T08:49:43.540Z,2.40
2022-11-24T08:52:10.518Z,2.40
2022-11-24T08:54:37.415Z,2.13
2022-11-24T08:57:04.073Z,3.03
2022-11-24T08:59:30.703Z,2.50
2022-11-24T09:02:00.232Z,2.40
2022-11-24T09:04:27.028Z,3.00
2022-11-24T09:06:53.739Z,2.57
2022-11-24T09:09:20.480Z,2.00
2022-11-24T09:11:47.093Z,3.00
2022-11-24T09:14:13.820Z,2.27
2022-11-24T09:16:40.493Z,2.57
2022-11-24T09:19:08.210Z,2.70
2022-11-24T09:21:37.820Z,1.93
2022-11-24T09:24:05.251Z,2.40
2022-11-24T09:26:33.085Z,2.13
2022-11-24T09:29:00.665Z,2.40
2022-11-24T09:31:30.829Z,2.90
2022-11-24T09:33:57.984Z,3.33
2022-11-24T09:36:24.767Z,2.43
2022-11-24T09:38:51.488Z,2.57
2022-11-24T09:41:18.146Z,2.20
2022-11-24T09:44:03.423Z,2.40
2022-11-24T09:46:30.141Z,2.30
2022-11-24T09:48:57.470Z,2.60
2022-11-24T09:51:28.912Z,2.23
2022-11-24T09:53:59.465Z,2.77
2022-11-24T09:56:31.280Z,2.50
2022-11-24T09:59:01.007Z,2.70
2022-11-24T10:01:30.164Z,2.33
2022-11-24T10:04:01.133Z,2.67
2022-11-24T10:06:44.343Z,2.70
2022-11-24T10:09:17.067Z,1.97
2022-11-24T10:11:52.886Z,2.57
2022-11-24T10:14:19.600Z,2.10
2022-11-24T10:17:08.186Z,2.50
2022-11-24T10:19:47.422Z,1.93
2022-11-24T10:22:20.262Z,2.27
2022-11-24T10:24:46.877Z,2.57
2022-11-24T10:27:17.345Z,2.53
2022-11-24T10:29:44.269Z,2.40
2022-11-24T10:32:40.462Z,2.83
2022-11-24T10:35:17.839Z,2.30
2022-11-24T10:37:53.353Z,2.40
2022-11-24T10:40:56.625Z,2.23
2022-11-24T10:43:25.919Z,2.27
2022-11-24T10:45:52.644Z,2.37
2022-11-24T10:48:24.581Z,2.03
2022-11-24T10:50:54.321Z,2.33
2022-11-24T10:53:20.933Z,2.30
2022-11-24T10:55:57.687Z,2.17
2022-11-24T10:58:34.395Z,2.90
2022-11-24T11:01:12.979Z,2.20
2022-11-24T11:03:53.581Z,2.60
2022-11-24T11:06:24.434Z,2.67
2022-11-24T11:09:11.018Z,2.43
2022-11-24T11:11:39.348Z,3.03
2022-11-24T11:14:06.855Z,2.13
2022-11-24T11:16:36.260Z,2.50
2022-11-24T11:19:47.198Z,2.07
2022-11-24T11:22:12.570Z,2.47
2022-11-24T11:24:40.724Z,2.33
2022-11-24T11:27:16.574Z,2.00
2022-11-24T11:35:18.587Z,2.40
2022-11-24T11:37:45.636Z,2.20
2022-11-24T11:40:24.020Z,2.47
2022-11-24T11:43:02.359Z,1.90
2022-11-24T11:45:37.072Z,1.80
2022-11-24T11:48:03.796Z,1.90
2022-11-24T11:51:21.675Z,1.97
2022-11-24T11:53:38.196Z,2.77
2022-11-24T11:56:22.967Z,2.07
2022-11-24T11:59:08.139Z,3.40
2022-11-24T12:01:53.712Z,2.13
2022-11-24T12:04:35.748Z,2.10
2022-11-24T12:07:17.912Z,2.00
2022-11-24T12:09:56.699Z,2.27
2022-11-24T12:12:41.889Z,2.10
2022-11-24T12:15:17.270Z,2.60
2022-11-24T12:17:51.134Z,2.53
2022-11-24T12:20:40.935Z,2.60
2022-11-24T12:23:09.702Z,2.40
2022-11-24T12:25:40.131Z,2.33
2022-11-24T12:28:12.881Z,2.37
2022-11-24T12:30:58.206Z,2.53
2022-11-24T12:33:55.299Z,2.73
2022-11-24T12:36:36.908Z,2.13
2022-11-24T12:39:03.592Z,2.60
2022-11-24T12:41:49.029Z,2.33
2022-11-24T12:44:24.875Z,2.57
2022-11-24T12:46:56.404Z,2.50
2022-11-24T12:49:29.274Z,2.93
2022-11-24T12:52:01.113Z,2.90
2022-11-24T12:54:38.791Z,3.00
2022-11-24T12:57:14.251Z,2.67
2022-11-24T12:59:45.376Z,2.80
2022-11-24T13:02:15.092Z,3.30
2022-11-24T13:04:54.384Z,2.30
2022-11-24T13:07:27.096Z,2.60
2022-11-24T13:10:12.498Z,2.90
2022-11-24T13:12:57.720Z,2.63
2022-11-24T13:15:45.063Z,2.87
2022-11-24T13:18:31.505Z,2.37
2022-11-24T13:20:58.315Z,2.10
2022-11-24T13:23:26.843Z,2.40
2022-11-24T13:26:12.152Z,3.10
2022-11-24T13:29:06.201Z,2.77
2022-11-24T13:31:40.008Z,2.47
2022-11-24T13:34:26.680Z,2.20
2022-11-24T13:36:53.811Z,2.37
2022-11-24T13:39:21.513Z,2.60
2022-11-24T13:42:00.094Z,2.60
2022-11-24T13:44:26.751Z,2.17
2022-11-24T13:47:01.773Z,2.63
2022-11-24T13:49:39.100Z,2.00
2022-11-24T13:52:24.545Z,2.83
2022-11-24T13:54:52.225Z,2.50
2022-11-24T13:57:39.150Z,2.77
2022-11-24T14:00:18.648Z,1.93
2022-11-24T14:02:45.802Z,2.20
2022-11-24T14:05:14.162Z,2.60
2022-11-24T14:07:41.774Z,2.63
2022-11-24T14:10:14.870Z,2.70
2022-11-24T14:12:41.558Z,3.10
2022-11-24T14:15:35.578Z,3.43
2022-11-24T14:18:15.773Z,2.77
2022-11-24T14:20:42.442Z,2.37
2022-11-24T14:23:10.220Z,2.93
2022-11-24T14:25:36.878Z,2.37
2022-11-24T14:28:13.371Z,2.40
2022-11-24T14:30:40.160Z,2.20
2022-11-24T14:33:11.016Z,2.97
2022-11-24T14:35:42.634Z,2.20
2022-11-24T14:38:10.154Z,2.40
2022-11-24T14:40:37.338Z,3.03
2022-11-24T14:43:16.032Z,2.93
2022-11-24T14:45:49.922Z,2.20
2022-11-24T14:48:17.930Z,2.63
2022-11-24T14:50:44.895Z,2.87
2022-11-24T14:53:15.160Z,2.93
2022-11-24T14:55:42.476Z,2.50
2022-11-24T14:58:29.452Z,2.67
2022-11-24T15:01:18.667Z,2.70
2022-11-24T15:03:45.866Z,3.23
2022-11-24T15:06:17.147Z,3.30
2022-11-24T15:08:45.931Z,3.30
2022-11-24T15:11:13.482Z,3.00
2022-11-24T15:13:40.519Z,3.20
2022-11-24T15:16:16.656Z,2.87
2022-11-24T15:18:44.581Z,3.67
2022-11-24T15:21:18.633Z,2.70
2022-11-24T15:24:04.100Z,2.63
2022-11-24T15:26:35.304Z,2.67
2022-11-24T15:29:05.159Z,3.23
2022-11-24T15:31:32.158Z,2.60
2022-11-24T15:33:58.900Z,3.00
2022-11-24T15:36:25.570Z,3.50
2022-11-24T15:38:52.362Z,2.77
2022-11-24T15:41:25.413Z,2.90
2022-11-24T15:43:58.910Z,2.60
2022-11-24T15:46:29.339Z,2.40
2022-11-24T15:48:56.168Z,2.93
2022-11-24T15:51:25.326Z,3.00
2022-11-24T15:53:57.095Z,2.60
2022-11-24T15:56:36.647Z,3.03
2022-11-24T15:59:03.949Z,2.90
2022-11-24T16:01:31.946Z,3.67
2022-11-24T16:03:58.832Z,2.73
2022-11-24T16:06:25.814Z,2.93
2022-11-24T16:08:53.320Z,2.30
2022-11-24T16:11:20.614Z,3.07
2022-11-24T16:13:52.481Z,2.40
2022-11-24T16:16:20.632Z,3.33
2022-11-24T16:18:47.324Z,2.80
2022-11-24T16:21:14.056Z,2.70
2022-11-24T16:23:40.665Z,2.83
2022-11-24T16:26:07.365Z,3.13
2022-11-24T16:28:34.071Z,3.17
2022-11-24T16:31:00.719Z,2.60
2022-11-24T16:33:28.413Z,2.90
2022-11-24T16:35:55.042Z,2.73
2022-11-24T16:38:21.759Z,3.40
2022-11-24T16:40:56.331Z,2.70
2022-11-24T16:43:24.557Z,2.50
2022-11-24T16:46:11.556Z,2.70
2022-11-24T16:48:38.368Z,2.87
2022-11-24T16:51:06.364Z,3.40
2022-11-24T16:53:34.383Z,3.13
2022-11-24T16:56:01.056Z,3.27
2022-11-24T16:58:27.739Z,3.50
2022-11-24T17:00:54.585Z,4.00
2022-11-24T17:03:21.471Z,4.80
2022-11-24T17:05:57.821Z,2.87
2022-11-24T17:08:24.462Z,2.70
2022-11-24T17:10:51.173Z,2.87
2022-11-24T17:13:17.839Z,3.50
2022-11-24T17:15:48.361Z,3.13
2022-11-24T17:18:24.648Z,3.07
2022-11-24T17:20:51.998Z,2.60
2022-11-24T17:23:19.738Z,2.33
2022-11-24T17:25:46.569Z,3.10
2022-11-24T17:28:13.221Z,2.73
2022-11-24T17:30:39.898Z,2.40
2022-11-24T17:33:06.525Z,3.07
2022-11-24T17:35:36.063Z,2.13
2022-11-24T17:38:02.878Z,2.70
2022-11-24T17:40:29.926Z,2.50
2022-11-24T17:43:00.402Z,2.47
2022-11-24T17:45:28.275Z,2.37
2022-11-24T17:47:56.211Z,2.67
2022-11-24T17:50:26.121Z,2.10
2022-11-24T17:52:53.607Z,2.70
2022-11-24T17:55:20.286Z,2.70
2022-11-24T17:57:46.969Z,2.57
2022-11-24T18:00:13.947Z,2.43
2022-11-24T18:02:40.621Z,2.57
2022-11-24T18:05:07.482Z,2.43
2022-11-24T18:07:37.318Z,2.70
2022-11-24T18:10:04.222Z,3.10
2022-11-24T18:12:30.880Z,2.90
2022-11-24T18:14:57.595Z,2.70
2022-11-24T18:17:24.597Z,2.60
2022-11-24T18:19:51.326Z,2.90
2022-11-24T18:22:21.028Z,2.23
2022-11-24T18:24:53.936Z,1.93
2022-11-24T18:27:20.596Z,2.50
2022-11-24T18:29:49.898Z,2.47
2022-11-24T18:32:20.027Z,2.20
2022-11-24T18:34:46.612Z,2.67
2022-11-24T18:37:14.888Z,2.13
2022-11-24T18:39:42.411Z,2.20
2022-11-24T18:42:09.502Z,2.30
2022-11-24T18:44:36.584Z,2.70
2022-11-24T18:47:03.926Z,2.30
2022-11-24T18:49:32.005Z,3.20
2022-11-24T18:51:59.448Z,3.50
2022-11-24T18:54:29.308Z,2.60
2022-11-24T18:57:00.300Z,3.23
2022-11-24T18:59:29.728Z,2.73
2022-11-24T19:01:58.021Z,2.23
2022-11-24T19:04:26.287Z,2.10
2022-11-24T19:06:53.112Z,2.83
2022-11-24T19:09:22.629Z,2.90
2022-11-24T19:11:49.256Z,2.37
2022-11-24T19:14:17.458Z,2.57
2022-11-24T19:16:44.977Z,2.47
2022-11-24T19:19:12.076Z,2.70
2022-11-24T19:21:39.492Z,2.40
2022-11-24T19:24:07.040Z,2.63
2022-11-24T19:26:35.291Z,3.00
2022-11-24T19:29:02.559Z,3.23
2022-11-24T19:31:29.299Z,2.77
2022-11-24T19:33:58.036Z,3.20
2022-11-24T19:36:26.067Z,2.80
2022-11-24T19:38:53.777Z,2.73
2022-11-24T19:41:21.447Z,2.60
2022-11-24T19:43:48.544Z,2.60
2022-11-24T19:46:16.746Z,2.73
2022-11-24T19:48:44.462Z,2.73
2022-11-24T19:51:15.620Z,3.47
2022-11-24T19:53:43.249Z,2.90
2022-11-24T19:56:11.520Z,2.67
2022-11-24T19:58:39.339Z,2.63
2022-11-24T20:01:10.128Z,2.77
2022-11-24T20:03:37.501Z,2.97
2022-11-24T20:06:04.844Z,2.63
2022-11-24T20:08:32.524Z,3.03
2022-11-24T20:11:10.208Z,2.73
2022-11-24T20:13:37.646Z,3.07
2022-11-24T20:16:11.662Z,3.20
2022-11-24T20:18:42.142Z,3.73
2022-11-24T20:21:13.288Z,3.67
2022-11-24T20:23:40.262Z,2.50
2022-11-24T20:26:08.619Z,2.83
2022-11-24T20:28:35.737Z,3.70
2022-11-24T20:31:03.538Z,2.80
2022-11-24T20:33:30.479Z,3.00
2022-11-24T20:36:10.664Z,2.47
2022-11-24T20:38:37.993Z,3.00
2022-11-24T20:41:09.011Z,2.30
2022-11-24T20:43:36.507Z,2.37
2022-11-24T20:46:04.255Z,2.47
2022-11-24T20:48:31.020Z,2.47
2022-11-24T20:51:02.706Z,3.10
2022-11-24T20:53:29.645Z,2.57
2022-11-24T20:56:22.604Z,2.60
2022-11-24T20:58:49.395Z,2.03
2022-11-24T21:01:17.936Z,3.03
2022-11-24T21:03:45.844Z,2.97
2022-11-24T21:06:13.293Z,2.40
2022-11-24T21:08:41.406Z,2.83
2022-11-24T21:11:08.975Z,2.27
2022-11-24T21:13:36.868Z,2.13
2022-11-24T21:16:13.182Z,2.87
2022-11-24T21:18:40.129Z,2.17
2022-11-24T21:21:06.895Z,2.60
2022-11-24T21:23:33.488Z,2.63
2022-11-24T21:26:05.139Z,3.30
2022-11-24T21:28:32.712Z,3.00
2022-11-24T21:31:06.594Z,2.23
2022-11-24T21:33:33.514Z,2.43
2022-11-24T21:36:03.791Z,2.20
2022-11-24T21:38:30.918Z,3.03
2022-11-24T21:41:04.091Z,2.63
2022-11-24T21:43:31.466Z,3.10
2022-11-24T21:46:02.001Z,2.67
2022-11-24T21:48:29.666Z,2.53
2022-11-24T21:50:59.971Z,1.90
2022-11-24T21:53:27.397Z,2.53
2022-11-24T21:55:54.740Z,3.13
2022-11-24T21:58:21.634Z,2.50
2022-11-24T22:00:48.441Z,3.10
2022-11-24T22:03:15.201Z,2.67
2022-11-24T22:05:41.782Z,2.40
2022-11-24T22:08:08.363Z,2.63
2022-11-24T22:10:34.987Z,2.87
2022-11-24T22:13:01.639Z,2.70
2022-11-24T22:15:28.248Z,2.37
2022-11-24T22:17:54.803Z,2.90
2022-11-24T22:20:21.434Z,3.00
2022-11-24T22:22:47.983Z,2.40
2022-11-24T22:25:14.718Z,2.77
2022-11-24T22:27:41.272Z,2.60
2022-11-24T22:30:08.244Z,2.90
2022-11-24T22:32:34.843Z,2.97
2022-11-24T22:35:01.616Z,4.33
2022-11-24T22:37:28.199Z,2.77
2022-11-24T22:39:54.816Z,2.93
2022-11-24T22:42:21.396Z,2.90
2022-11-24T22:44:48.043Z,3.00
2022-11-24T22:47:14.765Z,2.63
2022-11-24T22:49:41.397Z,2.57
2022-11-24T22:52:08.038Z,2.80
2022-11-24T22:54:34.994Z,2.67
2022-11-24T22:57:01.725Z,2.60
2022-11-24T22:59:28.488Z,2.83
2022-11-24T23:01:55.025Z,2.80
2022-11-24T23:04:21.699Z,2.23
2022-11-24T23:06:48.430Z,2.27
2022-11-24T23:09:15.154Z,2.20
2022-11-24T23:11:41.827Z,3.17
2022-11-24T23:14:11.977Z,2.43
2022-11-24T23:16:38.982Z,2.30
2022-11-24T23:19:05.790Z,2.30
2022-11-24T23:21:33.694Z,2.00
2022-11-24T23:24:01.576Z,3.33
2022-11-24T23:26:29.565Z,2.27
2022-11-24T23:28:56.306Z,2.40
2022-11-24T23:31:30.256Z,2.37
2022-11-24T23:34:06.121Z,2.70
2022-11-24T23:36:32.837Z,2.00
2022-11-24T23:39:06.853Z,2.47
2022-11-24T23:41:33.509Z,2.90
2022-11-24T23:44:00.331Z,2.93
2022-11-24T23:46:27.822Z,2.57
2022-11-24T23:48:55.140Z,2.33
2022-11-24T23:51:23.058Z,3.00
2022-11-24T23:53:50.282Z,2.40
2022-11-24T23:56:18.338Z,2.50
2022-11-24T23:58:45.156Z,3.03
